Ojo, Colorado
Current Conditions -  °F | °C
As of 9:01 PM on Tuesday 25 Nov 2014 (Local Time) from KVTP Reporting Station
Clear Clear  
Wind Chill:   Ceiling: Unl
Heat Index: 21°   Visibility: 10mi
Dew Point: 12°   Wind: 14mph
Humidity: 68%   Direction: 220°SW
Pressure: 30.11"   Gusts: 25mph
Location:  37.5011°N, 105.046°W
Report Text: KVTP 260401Z AUTO 22012G22KT 160V360 10SM CLR M06/M11 A3011 RMK AO2
Loading
Personal Weather Stations






























Interactive Weather Map New forecast layout! Learn more

10-Day Weather Forecast

Advertisements
Track Severe Weather on mobile